Tiempo atmosférico en la estación meteorológica de Puerto De La Cruz, Santa Cruz de Tenerife (25 m.)



Fecha
DESCASC
Temp. máxima en grados centígrados (hora)
DESCASC
Temp. mínima en grados centígrados (hora)
DESCASC
Temp. media en grados centígrados
DESCASC
Racha de viento máxima en m/sg (hora)
DESCASC
Velocidad máxima media en intervalos de 10 minutos(hora)
DESCASC
Precipitaciones diarias en mm
DESCASC
Precipitaciones de 00:00 a 06:00 en mm
DESCASC
Precipitaciones de 06:00 a 12:00 en mm
DESCASC
Precipitaciones de 12:00 a 18:00 en mm
DESCASC
Precipitaciones de 18:00 a 24:00 en mm
DESCASC
16-01-2020 23.1 (13:40) 14.6 (07:10) 18.9 5.28 (09:00) 3.33 (09:00) 0 0 0 0 0
15-01-2020 21.4 (11:00) 15.4 (07:20) 18.4 5 (23:20) 2.5 (04:10) 0 0 0 0 0
14-01-2020 24.2 (14:40) 15.4 (03:20) 19.8 5 (04:50) 3.06 (05:20) 0 0 0 0 0
13-01-2020 21.2 (14:30) 14.7 (08:20) 18 5 (04:00) 2.78 (03:00) 0 0 0 0 0
12-01-2020 22 (12:20) 16.7 (23:50) 19.4 10.28 (20:20) 6.67 (20:30) 0 0 0 0 0
11-01-2020 21.7 (11:30) 15.8 (00:00) 18.8 9.72 (21:50) 7.78 (22:00) 0 0 0 0 0
10-01-2020 20.8 (14:10) 17.3 (00:00) 19 13.33 (12:10) 9.72 (12:10) 0.1 0 0.1 0 0
09-01-2020 22.1 (13:40) 15.8 (00:00) 19 9.44 (16:00) 7.5 (15:50) 0 0 0 0 0
08-01-2020 21.1 (13:50) 15.1 (00:00) 18.1 11.67 (11:50) 8.89 (12:10) 0 0 0 0 0
07-01-2020 21.2 (14:40) 15.7 (00:00) 18.5 16.11 (12:50) 11.94 (12:50) 0.3 0.3 0 0 0
06-01-2020 23.1 (13:20) 15.2 (00:00) 19.2 10.83 (08:10) 6.11 (08:10) 0.8 0 0.2 0 0.6
05-01-2020 21.5 (11:30) 14.5 (00:00) 18 9.72 (18:10) 7.22 (17:50) 0 0 0 0 0
04-01-2020 23.7 (15:40) 14.5 (00:00) 19.1 5 (05:30) 3.06 (08:00) 0 0 0 0 0
03-01-2020 22.3 (11:40) 14.1 (00:00) 18.2 4.72 (02:10) 2.78 (03:00) 0 0 0 0 0
02-01-2020 21.7 (11:40) 15.2 (00:00) 18.5 4.72 (05:20) 2.78 (04:10) 0 0 0 0 0
01-01-2020 23 (11:00) 15.7 (00:00) 19.3 5 (13:40) 2.78 (06:00) 0 0 0 0 0
31-12-2019 23.7 (14:00) 15.5 (00:00) 19.6 6.11 (15:20) 3.06 (15:00) 0 0 0 0 0
30-12-2019 25.8 (14:20) 17.5 (00:00) 21.6 4.44 (05:10) 2.78 (05:10) 0 0 0 0 0
29-12-2019 25 (16:40) 17.1 (00:00) 21.1 4.44 (00:50) 2.5 (01:00) 0 0 0 0 0
28-12-2019 24 (15:10) 17.6 (00:00) 20.8 5 (15:40) 3.06 (15:50) 0 0 0 0 0
27-12-2019 25.2 (13:30) 16.9 (00:00) 21.1 4.72 (21:40) 3.06 (21:50) 0 0 0 0 0
26-12-2019 27.2 (15:30) 18 (00:00) 22.6 4.17 (14:00) 2.5 (14:20) 0 0 0 0 0
25-12-2019 23.5 (10:50) 18.5 (00:00) 21 6.11 (12:20) 2.78 (12:20) 0 0 0 0 0
24-12-2019 24.8 (14:20) 16.4 (04:00) 20.6 5.28 (21:50) 3.33 (21:30) 0 0 0 0 0
23-12-2019 24.6 (12:50) 17.5 (00:00) 21.1 4.44 (06:50) 2.78 (06:50) 0 0 0 0 0
22-12-2019 22.5 (15:10) 16.7 (08:30) 19.6 5.83 (12:00) 3.33 (12:10) 0 0 0 0 0
21-12-2019 23.5 (12:50) 15.8 (07:00) 19.7 4.17 (21:20) 2.5 (07:50) 0 0 0 0 0
20-12-2019 22.3 (10:20) 16.2 (00:00) 19.3 4.72 (02:10) 2.78 (02:30) 0 0 0 0 0

Gráficas

Temp. máximas Temp. mínimas Temp. medias Precipitaciones Rachas de viento máximas Velocidades máximas media en intervalos de 10 minutos

Datos horarios

Fecha y hora oficial Temperatura (ºC) Velocidad del viento (km/h) Dirección del viento Racha (km/h) Dirección de racha Precipitación (mm) Presión (hPa) Tendencia (hPa) Humedad (%)
2020-01-18 23:00:00 17.1 5 Sur 13 Sur 0 1024.6 -0.3 49
2020-01-18 22:00:00 16.6 6 Sur 13 Sudeste 0 1024.9 0.5 51
2020-01-18 21:00:00 17.2 8 Sur 12 Sudeste 0 1024.8 0.9 51
2020-01-18 20:00:00 17.8 7 Sur 13 Sudeste 0 1024.9 1 51
2020-01-18 19:00:00 19.1 4 Sur 7 Sur 0 1024.4 0.3 54
2020-01-18 18:00:00 21 0 Calma 9 Noroeste 0 1023.9 -0.5 57
2020-01-18 17:00:00 21.9 4 Oeste 10 Oeste 0 1023.9 -1 43
2020-01-18 16:00:00 21.3 4 Noroeste 9 Noroeste 0 1024.1 -2.1 52
2020-01-18 15:00:00 21.1 4 Noroeste 6 Noroeste 0 1024.4 -2.7 51
2020-01-18 14:00:00 22.7 3 Nordeste 5 Noroeste 0 1024.9 -2.9 47
2020-01-18 13:00:00 20.6 4 Noroeste 10 Noroeste 0 1026.2 -1.4 51
2020-01-18 12:00:00 20 3 Noroeste 8 Noroeste 0 1027.1 -0.3 50
2020-01-18 11:00:00 19.9 2 Nordeste 4 Noroeste 0 1027.8 0.9 48
2020-01-18 10:00:00 18.8 2 Sudoeste 10 Sur 0 1027.6 1.3 42
2020-01-18 09:00:00 15.2 6 Sur 11 Sur 0 1027.4 1.6 44
2020-01-18 08:00:00 14.6 6 Sur 13 Sur 0 1026.9 1 44
2020-01-18 07:00:00 14.2 7 Sur 12 Sur 0 1026.3 0.2 45
2020-01-18 06:00:00 14.3 7 Sur 13 Sur 0 1025.8 -0.4 48
2020-01-18 05:00:00 14.4 7 Sur 13 Sur 0 1025.9 -0.6 50
2020-01-18 04:00:00 14.3 8 Sur 14 Sur 0 1026.1 -0.7 55
2020-01-18 03:00:00 14.8 8 Sur 15 Sur 0 1026.2 -1.1 51
2020-01-18 02:00:00 14.9 8 Sur 12 Sudeste 0 1026.5 -0.9 53
2020-01-18 01:00:00 15 6 Sur 12 Sur 0 1026.8 -0.2 57
2020-01-18 00:00:00 15.4 5 Sur 14 Sur 0 1027.3 0.8 55
2020-01-17 23:00:00 15.6 8 Sur 16 Sudeste 0 1027.4 1.4 54
2020-01-17 22:00:00 16.1 8 Sur 15 Sur 0 1027 1.9 53
2020-01-17 21:00:00 16.6 5 Sur 11 Sur 0 1026.5 1.8 53
2020-01-17 20:00:00 17.3 5 Sur 10 Sur 0 1026 1.6 55
2020-01-17 19:00:00 18.7 3 Sur 7 Sur 0 1025.1 0.5 60
2020-01-17 18:00:00 21.1 2 Nordeste 7 Nordeste 0 1024.7 0 56
2020-01-17 17:00:00 22.6 5 Nordeste 7 Norte 0 1024.4 -1 55
2020-01-17 16:00:00 21.3 3 Noroeste 6 Nordeste 0 1024.6 -1.4 56
2020-01-17 15:00:00 21.6 4 Nordeste 8 Norte 0 1024.7 -2.2 52
2020-01-17 14:00:00 20.8 5 Nordeste 8 Norte 0 1025.4 -1.6 51
2020-01-17 13:00:00 21.5 3 Nordeste 8 Nordeste 0 1026 -0.8 49
2020-01-17 12:00:00 21.7 5 Nordeste 8 Nordeste 0 1026.9 0.4 50
2020-01-17 11:00:00 19.6 2 Norte 4 Norte 0 1027 1 50
2020-01-17 10:00:00 19.2 3 Sur 12 Sur 0 1026.8 1.2 44
2020-01-17 09:00:00 14.9 8 Sur 14 Sur 0 1026.5 1.1 51
2020-01-17 08:00:00 14.5 10 Sur 16 Sur 0 1026 0.9 49
2020-01-17 07:00:00 14.7 9 Sur 16 Sur 0 1025.6 0.5 50
2020-01-17 06:00:00 14.8 10 Sur 16 Sur 0 1025.4 0.4 49
2020-01-17 05:00:00 14.9 9 Sur 16 Sur 0 1025.1 0 50
2020-01-17 04:00:00 15.1 10 Sur 17 Sur 0 1025.1 -0.7 49
2020-01-17 03:00:00 14.8 9 Sur 13 Sudeste 0 1025 -1.1 49
2020-01-17 02:00:00 15.3 5 Sur 10 Sur 0 1025.1 -1.2 49
2020-01-17 01:00:00 15.4 6 Sur 14 Sur 0 1025.8 -0.1 46
2020-01-17 00:00:00 16.1 5 Sur 11 Sur 0 1026.1 0.7 47
2020-01-16 23:00:00 16.2 6 Sur 13 Sur 0 1026.3 1.3 55
2020-01-16 22:00:00 16.6 6 Sur 12 Sur 0 1025.9 1.9 56
2020-01-16 21:00:00 16.7 6 Sur 13 Sur 0 1025.4 2.1 56
2020-01-16 20:00:00 17.3 6 Sur 10 Sur 0 1025 1.9 56
2020-01-16 19:00:00 18.8 4 Sur 9 Sur 0 1024 1.1 58
2020-01-16 18:00:00 20.9 4 Nordeste 8 Nordeste 0 1023.3 0.4 63
2020-01-16 17:00:00 22.3 5 Nordeste 8 Nordeste 0 1023.1 0.5 54
2020-01-16 16:00:00 22.1 6 Nordeste 10 Nordeste 0 1022.9 -0.7 57
2020-01-16 15:00:00 21.1 6 Nordeste 13 Nordeste 0 1022.9 -1.5 56
2020-01-16 14:00:00 23 8 Nordeste 12 Nordeste 0 1022.6 -2 54
2020-01-16 13:00:00 22.4 10 Nordeste 12 Nordeste 0 1023.6 -1.1 55
2020-01-16 12:00:00 21.6 9 Nordeste 12 Nordeste 0 1024.4 -0.1 54
2020-01-16 11:00:00 20.9 5 Nordeste 8 Nordeste 0 1024.6 0.9 50
2020-01-16 10:00:00 18.7 5 Sur 17 Sur 0 1024.7 2.3 46
2020-01-16 09:00:00 15.4 12 Sur 19 Sudeste 0 1024.5 2.3 50
2020-01-16 08:00:00 14.9 10 Sur 16 Sur 0 1023.7 1.5 52
2020-01-16 07:00:00 14.7 11 Sur 16 Sur 0 1022.4 0 53
2020-01-16 06:00:00 14.9 9 Sur 17 Sur 0 1022.2 0 54
2020-01-16 05:00:00 15.3 9 Sur 14 Sur 0 1022.2 0 54
2020-01-16 04:00:00 15.3 8 Sur 17 Sur 0 1022.4 0.2 58
2020-01-16 03:00:00 15.5 8 Sur 18 Sur 0 1022.2 -0.1 55
2020-01-16 02:00:00 15.7 8 Sur 17 Sur 0 1022.2 0.3 56
2020-01-16 01:00:00 15.8 9 Sur 16 Sur 0 1022.2 0.8 55
2020-01-16 00:00:00 16 9 Sur 18 Sur 0 1022.3 1.2 54
2020-01-15 23:00:00 16.2 7 Sur 15 Sur 0 1021.9 1.2 52
2020-01-15 22:00:00 16.6 6 Sur 14 Sur 0 1021.4 1.7 53
2020-01-15 21:00:00 17 6 Sur 14 Sur 0 1021.1 2 54
2020-01-15 20:00:00 17.4 3 Sur 10 Sur 0 1020.7 1.6 56
2020-01-15 19:00:00 18.8 3 Sur 7 Sudoeste 0 1019.7 0.5 56
2020-01-15 18:00:00 19.7 4 Noroeste 9 Noroeste 0 1019.1 -0.1 63
2020-01-15 17:00:00 20.5 3 Noroeste 10 Noroeste 0 1019.1 -0.2 60
2020-01-15 16:00:00 20.7 5 Noroeste 10 Oeste 0 1019.2 -0.3 61
2020-01-15 15:00:00 20.3 6 Noroeste 12 Noroeste 0 1019.2 -1.1 61
2020-01-15 14:00:00 20.7 5 Noroeste 10 Norte 0 1019.3 -1.2 57
2020-01-15 13:00:00 20.5 5 Noroeste 10 Noroeste 0 1019.5 -1 58
2020-01-15 12:00:00 20.4 3 Norte 6 Norte 0 1020.3 -0.5 58
2020-01-15 11:00:00 20.8 2 Nordeste 8 Sudeste 0 1020.5 -0.1 54
2020-01-15 10:00:00 19.1 4 Sur 15 Sudeste 0 1020.5 0.9 54
2020-01-15 09:00:00 15.9 8 Sur 17 Sur 0 1020.8 1.7 62
2020-01-15 08:00:00 15.6 9 Sur 17 Sur 0 1020.6 1.7 61
2020-01-15 07:00:00 15.8 8 Sur 16 Sur 0 1019.6 0.5 61
2020-01-15 06:00:00 15.6 8 Sur 17 Sur 0 1019.1 0 64
2020-01-15 05:00:00 15.8 7 Sur 15 Sudeste 0 1018.9 -0.1 65
2020-01-15 04:00:00 15.8 8 Sur 15 Sudeste 0 1019.1 -0.1 67
2020-01-15 03:00:00 16.3 6 Sur 14 Sur 0 1019.1 0 69
2020-01-15 02:00:00 16.6 4 Sur 16 Sur 0 1019 -0.4 65
2020-01-15 01:00:00 17.4 9 Sur 17 Sur 0 1019.2 0.4 61
2020-01-15 00:00:00 16.7 6 Sur 14 Sur 0 1019.1 0.6 62
2020-01-14 23:00:00 16.9 6 Sur 12 Sur 0 1019.4 1.7 63
2020-01-14 22:00:00 17 6 Sur 13 Sur 0 1018.8 1.8 64
2020-01-14 21:00:00 17.5 5 Sur 10 Sur 0 1018.5 1.5 62
2020-01-14 20:00:00 17.7 6 Sur 12 Sur 0 1017.7 1.3 63
2020-01-14 19:00:00 19.1 5 Sur 10 Sur 0 1017 0.9 62
2020-01-14 18:00:00 21 4 Este 9 Nordeste 0 1017 0.8 60
2020-01-14 17:00:00 23 6 Nordeste 13 Nordeste 0 1016.4 -0.1 53
2020-01-14 16:00:00 23.9 7 Nordeste 10 Nordeste 0 1016.1 -1.2 51
2020-01-14 15:00:00 24 5 Nordeste 9 Nordeste 0 1016.2 -2.2 48
2020-01-14 14:00:00 23.5 3 Nordeste 8 Nordeste 0 1016.5 -2.6 50
2020-01-14 13:00:00 23.6 5 Nordeste 7 Nordeste 0 1017.3 -1.3 50
2020-01-14 12:00:00 22.1 5 Nordeste 9 Nordeste 0 1018.4 -0.4 53
2020-01-14 11:00:00 20.6 4 Nordeste 9 Nordeste 0 1019.1 0.6 53
2020-01-14 10:00:00 20.1 3 Sudeste 12 Sudeste 0 1018.6 1 42
2020-01-14 09:00:00 16.1 6 Sur 17 Sudeste 0 1018.8 1.6 48
2020-01-14 08:00:00 15.9 5 Sur 10 Sur 0 1018.5 1.5 47
2020-01-14 07:00:00 16 0 Calma 9 Sur 0 1017.6 0.2 50
2020-01-14 06:00:00 16.1 3 Sur 18 Sur 0 1017.2 -0.8 50
2020-01-14 05:00:00 16.1 9 Sur 18 Sur 0 1017 -1.1 53
2020-01-14 04:00:00 15.6 8 Sur 14 Sur 0 1017.4 -1.1 53
2020-01-14 03:00:00 15.7 9 Sur 14 Sudeste 0 1018 -0.9 51
2020-01-14 02:00:00 15.8 8 Sur 14 Sur 0 1018.1 -1.3 49
2020-01-14 01:00:00 15.8 6 Sur 13 Sur 0 1018.5 -1 51
2020-01-14 00:00:00 16.3 8 Sur 15 Sur 0 1018.9 -0.4 50
2020-01-13 23:00:00 16.3 9 Sur 15 Sur 0 1019.4 0.6 55
2020-01-13 22:00:00 16.6 8 Sur 14 Sur 0 1019.5 1.1 56
2020-01-13 21:00:00 17.1 7 Sur 13 Sur 0 1019.3 1.2 59
2020-01-13 20:00:00 17.7 5 Sur 12 Sur 0 1018.8 0.9 62
2020-01-13 19:00:00 18.9 0 Calma 8 Noroeste 0 1018.4 0.8 71
2020-01-13 18:00:00 19.9 4 Oeste 10 Oeste 0 1018.1 0.1 67
2020-01-13 17:00:00 20.6 6 Oeste 14 Oeste 0 1017.9 -0.4 59
2020-01-13 16:00:00 20.8 7 Oeste 14 Sudoeste 0 1017.6 -1.9 55
2020-01-13 15:00:00 20.6 8 Noroeste 14 Noroeste 0 1018 -2.6 55
2020-01-13 14:00:00 20.4 6 Oeste 13 Noroeste 0 1018.3 -2.8 56
2020-01-13 13:00:00 20.2 6 Oeste 17 Oeste 0 1019.5 -2.2 60
2020-01-13 12:00:00 19.6 5 Noroeste 9 Noroeste 0 1020.6 -1.1 62
2020-01-13 11:00:00 18.9 3 Noroeste 6 Norte 0 1021.1 -0.3 61
2020-01-13 10:00:00 18.9 2 Sur 11 Sur 0 1021.7 1 56
2020-01-13 09:00:00 14.9 7 Sur 15 Sudeste 0 1021.7 1.1 62
2020-01-13 08:00:00 15 9 Sur 18 Sudeste 0 1021.4 1.2 60
2020-01-13 07:00:00 15.3 6 Sudeste 16 Sur 0 1020.7 0.3 63
2020-01-13 06:00:00 15.1 4 Sur 12 Sudeste 0 1020.6 -0.4 67
2020-01-13 05:00:00 15.3 4 Sur 15 Sudeste 0 1020.2 -0.7 68
2020-01-13 04:00:00 15.6 10 Sur 18 Sur 0 1020.4 -0.7 67
2020-01-13 03:00:00 15.7 10 Sur 17 Sudeste 0 1021 -0.4 67
2020-01-13 02:00:00 15.7 8 Sur 15 Sur 0 1020.9 -0.7 70
2020-01-13 01:00:00 16.2 7 Sur 15 Sur 0 1021.1 -0.7 71
2020-01-13 00:00:00 16.8 2 Sur 9 Sur 0 1021.4 0.1 70
2020-01-12 23:00:00 17.2 5 Sur 12 Sur 0 1021.6 0.5 69
2020-01-12 22:00:00 17.6 4 Sur 15 Nordeste 0 1021.8 0.4 70
2020-01-12 21:00:00 18.6 15 Nordeste 37 Nordeste 0 1021.3 0 72
2020-01-12 20:00:00 19.6 11 Nordeste 19 Nordeste 0 1021.1 0.3 70
2020-01-12 19:00:00 19.8 2 Oeste 15 Norte 0 1021.4 1 67
2020-01-12 18:00:00 20 13 Nordeste 26 Nordeste 0 1021.3 1.1 71
2020-01-12 17:00:00 20.4 11 Nordeste 21 Nordeste 0 1020.8 0.5 68
2020-01-12 16:00:00 20.4 8 Norte 21 Norte 0 1020.4 -0.9 61
2020-01-12 15:00:00 20.7 12 Oeste 22 Sudoeste 0 1020.2 -2.3 57
2020-01-12 14:00:00 20.5 9 Sudoeste 20 Oeste 0 1020.3 -2.9 57
2020-01-12 13:00:00 20.5 7 Noroeste 20 Norte 0 1021.3 -2.5 58
2020-01-12 12:00:00 20.6 7 Norte 27 Norte 0 1022.5 -0.9 58
2020-01-12 11:00:00 20.8 8 Este 33 Nordeste 0 1023.2 -0.1 59
2020-01-12 10:00:00 19.5 5 Nordeste 21 Nordeste 0 1023.8 1.3 65
2020-01-12 09:00:00 17.8 4 Sur 11 Sudeste 0 1023.4 1.1 68
2020-01-12 08:00:00 17.4 6 Sur 18 Nordeste 0 1023.3 0.7 69
2020-01-12 07:00:00 18 13 Nordeste 20 Nordeste 0 1022.5 -0.9 76
2020-01-12 06:00:00 17.8 6 Este 20 Este 0 1022.3 -1.4 68
2020-01-12 05:00:00 17.9 6 Este 17 Nordeste 0 1022.6 -1.3 71
2020-01-12 04:00:00 18 9 Este 18 Nordeste 0 1023.4 -0.9 75
2020-01-12 03:00:00 17.8 5 Sudeste 27 Nordeste 0 1023.7 -1.2 70
2020-01-12 02:00:00 17.8 6 Este 17 Sudeste 0 1023.9 -0.8 72
2020-01-12 01:00:00 17.5 3 Sur 26 Este 0 1024.3 -0.8 77
2020-01-12 00:00:00 17.4 3 Sudeste 27 Este 0 1024.9 0.6 79
2020-01-11 23:00:00 17.6 5 Sudeste 32 Nordeste 0 1024.7 0.8 72
2020-01-11 22:00:00 16.8 28 Nordeste 35 Nordeste 0 1025.1 1.4 90
2020-01-11 21:00:00 18.1 17 Nordeste 35 Este 0 1024.3 0.9 74
2020-01-11 20:00:00 18.4 7 Sudeste 25 Este 0 1023.9 0.7 67
2020-01-11 19:00:00 18.2 18 Este 27 Nordeste 0 1023.7 0.7 76
2020-01-11 18:00:00 18.5 15 Nordeste 27 Nordeste 0 1023.4 0.2 77
2020-01-11 17:00:00 18.9 23 Nordeste 32 Nordeste 0 1023.2 -0.5 75
2020-01-11 16:00:00 19.5 9 Este 23 Este 0 1023 -1.4 65
2020-01-11 15:00:00 19.4 18 Nordeste 33 Nordeste 0 1023.2 -2 67
2020-01-11 14:00:00 19.8 22 Nordeste 35 Este 0 1023.7 -2.4 68
2020-01-11 13:00:00 20.1 15 Nordeste 19 Este 0 1024.4 -1.6 64
2020-01-11 12:00:00 20.7 13 Nordeste 18 Nordeste 0 1025.2 -0.4 60
2020-01-11 11:00:00 19.5 11 Nordeste 20 Nordeste 0 1026.1 0.8 64
2020-01-11 10:00:00 18.4 6 Sudeste 15 Sudeste 0 1026 1.2 65
2020-01-11 09:00:00 17.4 9 Sur 17 Sur 0 1025.6 0.7 68
2020-01-11 08:00:00 16.1 10 Sur 17 Sur 0 1025.3 0.3 73
2020-01-11 07:00:00 16.6 6 Sudeste 14 Sudeste 0 1024.8 -0.6 74
2020-01-11 06:00:00 16.7 6 Sudeste 14 Sudeste 0 1024.9 -0.6 75
2020-01-11 05:00:00 16.5 6 Sur 16 Sudeste 0 1025 -0.4 76
2020-01-11 04:00:00 16.8 8 Sudeste 18 Sudeste 0 1025.4 -0.4 77
2020-01-11 03:00:00 17.8 10 Sudeste 21 Sudeste 0 1025.5 -0.9 80
2020-01-11 02:00:00 18 8 Sudeste 19 Nordeste 0 1025.4 -1.1 79
2020-01-11 01:00:00 18.3 9 Sudeste 24 Este 0 1025.8 -0.7 81
2020-01-11 00:00:00 17.4 5 Sudeste 18 Este 0 1026.4 0 80
2020-01-10 23:00:00 18.2 3 Sudeste 20 Este 0 1026.5 0.6 75
2020-01-10 22:00:00 18.4 4 Sudeste 13 Sudeste 0 1026.5 0.8 71
2020-01-10 21:00:00 17.6 4 Sur 14 Sur 0 1026.4 1.1 74
2020-01-10 20:00:00 18.2 6 Sur 30 Este 0 1025.9 0.7 81
2020-01-10 19:00:00 19.2 23 Nordeste 36 Este 0 1025.7 1 87
2020-01-10 18:00:00 19.3 16 Nordeste 38 Nordeste 0 1025.3 0.3 83
2020-01-10 17:00:00 18.8 35 Nordeste 45 Nordeste 0 1025.2 -0.1 90
2020-01-10 16:00:00 20.1 27 Nordeste 36 Nordeste 0 1024.7 -1.6 81
2020-01-10 15:00:00 19.8 23 Nordeste 33 Este 0 1025 -1.9 84
2020-01-10 14:00:00 20.5 18 Nordeste 45 Nordeste 0 1025.3 -2.2 79
2020-01-10 13:00:00 19.6 22 Nordeste 48 Nordeste 0 1026.3 -1.3 84
2020-01-10 12:00:00 19 21 Este 45 Nordeste 0 1026.9 -0.1 90
2020-01-10 11:00:00 20.1 6 Este 12 Nordeste 0 1027.5 0.6 86
2020-01-10 10:00:00 18.3 6 Nordeste 27 Nordeste 0.1 1027.6 1.1 94
2020-01-10 09:00:00 17.6 4 Sur 15 Sur 0 1027 1 90
2020-01-10 08:00:00 17.9 3 Este 21 Este 0 1026.9 0.3 86
2020-01-10 07:00:00 17.9 3 Sudeste 29 Nordeste 0 1026.5 -0.3 86
2020-01-10 06:00:00 18.2 6 Este 15 Este 0 1026 -1 84
2020-01-10 05:00:00 17.6 6 Sur 22 Nordeste 0 1026.6 -0.7 84
2020-01-10 04:00:00 18.1 5 Sur 25 Nordeste 0 1026.8 -0.5 77
2020-01-10 03:00:00 18.5 15 Este 28 Sudeste 0 1027 -0.9 82
2020-01-10 02:00:00 18.8 18 Nordeste 26 Nordeste 0 1027.3 -0.9 78
2020-01-10 01:00:00 18.8 7 Sudeste 15 Sur 0 1027.3 -1.1 67
2020-01-10 00:00:00 18 8 Sur 21 Sudeste 0 1027.9 -0.4 63
2020-01-09 23:00:00 18.7 9 Sudeste 27 Sudeste 0 1028.2 0.2 63
2020-01-09 22:00:00 18.8 5 Sudeste 19 Este 0 1028.4 1.3 66
2020-01-09 21:00:00 18.8 7 Sudeste 22 Este 0 1028.3 1.6 67
2020-01-09 20:00:00 18.8 8 Este 27 Nordeste 0 1028 1.7 68
2020-01-09 19:00:00 19 17 Nordeste 25 Nordeste 0 1027.1 1.6 75
2020-01-09 18:00:00 19.4 19 Nordeste 25 Nordeste 0 1026.7 1.2 68
2020-01-09 17:00:00 19.7 18 Nordeste 34 Nordeste 0 1026.3 0.2 68
2020-01-09 16:00:00 21.1 26 Nordeste 34 Nordeste 0 1025.5 -1.7 66
2020-01-09 15:00:00 21.3 20 Nordeste 27 Nordeste 0 1025.5 -2.7 63
2020-01-09 14:00:00 21.7 13 Nordeste 27 Nordeste 0 1026.1 -2.5 61
2020-01-09 13:00:00 20.7 20 Nordeste 29 Nordeste 0 1027.2 -0.7 63
2020-01-09 12:00:00 19.1 16 Nordeste 30 Este 0 1028.2 1 69
2020-01-09 11:00:00 19.3 10 Este 23 Este 0 1028.6 1.9 68
2020-01-09 10:00:00 18.5 8 Este 17 Sudeste 0 1027.9 1.8 71
2020-01-09 09:00:00 17.2 9 Sur 15 Sudeste 0 1027.2 1.2 72
2020-01-09 08:00:00 16.6 8 Sudeste 19 Sudeste 0 1026.7 0.9 73
2020-01-09 07:00:00 17.7 9 Este 23 Nordeste 0 1026.1 -0.1 76
2020-01-09 06:00:00 17.2 7 Sudeste 16 Este 0 1026 -0.5 79
2020-01-09 05:00:00 17 7 Sur 15 Sudeste 0 1025.8 -0.4 67
2020-01-09 04:00:00 16.6 7 Sur 17 Sudeste 0 1026.2 -0.3 64
2020-01-09 03:00:00 15.9 9 Sur 18 Sur 0 1026.5 -0.4 65
2020-01-09 02:00:00 16.8 7 Sur 16 Sur 0 1026.2 -0.5 65
2020-01-09 01:00:00 17.9 6 Sudeste 18 Sudeste 0 1026.5 -0.7 71
2020-01-09 00:00:00 17.3 9 Sur 18 Sur 0 1026.9 -0.3 64
2020-01-08 23:00:00 16.7 8 Sur 17 Sur 0 1026.7 0.1 61
2020-01-08 22:00:00 17.3 9 Sudeste 17 Sur 0 1027.2 1.2 62
2020-01-08 21:00:00 16.6 8 Sur 17 Sur 0 1027.2 1.6 66
2020-01-08 20:00:00 16.8 9 Sur 18 Sur 0 1026.6 1.4 72
2020-01-08 19:00:00 18.6 7 Este 25 Nordeste 0 1026 1.5 70
2020-01-08 18:00:00 19.2 18 Nordeste 30 Nordeste 0 1025.6 1.4 72
2020-01-08 17:00:00 19.4 24 Nordeste 36 Este 0 1025.2 0.6 71
2020-01-08 16:00:00 19.6 28 Nordeste 37 Nordeste 0 1024.5 -0.6 70
2020-01-08 15:00:00 20.2 28 Nordeste 39 Nordeste 0 1024.2 -1.6 67
2020-01-08 14:00:00 20.5 29 Nordeste 39 Nordeste 0 1024.6 -1.8 66
2020-01-08 13:00:00 20.6 31 Nordeste 41 Nordeste 0 1025.1 -1.4 68
2020-01-08 12:00:00 20.3 31 Nordeste 42 Nordeste 0 1025.8 -0.3 69
2020-01-08 11:00:00 20.2 22 Nordeste 29 Nordeste 0 1026.4 1 68
2020-01-08 10:00:00 18.7 2 Este 12 Sur 0 1026.5 1.4 69
2020-01-08 09:00:00 16.7 5 Sur 12 Sur 0 1026.1 1.3 73
2020-01-08 08:00:00 16.8 5 Sur 19 Sudeste 0 1025.4 0.3 71
2020-01-08 07:00:00 15.9 8 Sur 18 Sudeste 0 1025.1 -0.3 65
2020-01-08 06:00:00 15.7 9 Sur 19 Sudeste 0 1024.8 -0.9 60
2020-01-08 05:00:00 16 8 Sur 17 Sur 0 1025.1 -0.3 63
2020-01-08 04:00:00 16.3 10 Sur 19 Sudeste 0 1025.4 -0.2 58
2020-01-08 03:00:00 15.5 10 Sur 17 Sur 0 1025.7 -0.2 60
2020-01-08 02:00:00 15.6 9 Sur 17 Sur 0 1025.4 -0.8 59
2020-01-08 01:00:00 15.5 8 Sur 15 Sur 0 1025.6 -0.3 58
2020-01-08 00:00:00 16.2 7 Sur 19 Sudeste 0 1025.9 0.7 55
2020-01-07 23:00:00 16.2 8 Sur 17 Sudeste 0 1026.2 1.5 59
2020-01-07 22:00:00 16.5 6 Sur 14 Sudeste 0 1025.9 2.4 56
2020-01-07 21:00:00 17.2 8 Sudeste 17 Sudeste 0 1025.2 2.5 58
2020-01-07 20:00:00 18.1 7 Este 16 Sur 0 1024.7 2.7 59
2020-01-07 19:00:00 19.1 12 Nordeste 33 Nordeste 0 1023.5 1.6 61
2020-01-07 18:00:00 20.1 17 Este 46 Nordeste 0 1022.7 1 58
2020-01-07 17:00:00 21 24 Nordeste 47 Nordeste 0 1022 -0.1 56
2020-01-07 16:00:00 21 32 Nordeste 54 Este 0 1021.9 -0.7 59
2020-01-07 15:00:00 21 35 Nordeste 50 Nordeste 0 1021.7 -1.8 61
2020-01-07 14:00:00 20.6 35 Nordeste 53 Nordeste 0 1022.1 -2.2 63
2020-01-07 13:00:00 20.5 38 Nordeste 58 Este 0 1022.6 -1.5 66
2020-01-07 12:00:00 20 37 Nordeste 55 Este 0 1023.5 -0.6 65
2020-01-07 11:00:00 19.1 38 Nordeste 52 Nordeste 0 1024.3 0.8 71
2020-01-07 10:00:00 18.9 35 Nordeste 50 Nordeste 0 1024.1 0.9 68
2020-01-07 09:00:00 16.8 3 Sur 15 Sur 0 1024.1 1.3 74
2020-01-07 08:00:00 16.9 2 Sudoeste 9 Sur 0 1023.5 0.7 70
2020-01-07 07:00:00 16.8 6 Sur 14 Sudeste 0 1023.2 0 67
2020-01-07 06:00:00 16.1 7 Sur 12 Sur 0 1022.8 -0.6 69
2020-01-07 05:00:00 16.6 9 Sudeste 17 Sur 0 1022.8 -1 65
2020-01-07 04:00:00 17.5 6 Sudeste 14 Sudeste 0 1023.2 -1.1 74
2020-01-07 03:00:00 18 9 Sudeste 22 Este 0 1023.4 -1.3 78
2020-01-07 02:00:00 17.5 5 Sudeste 28 Nordeste 0 1023.8 -1.2 82
2020-01-07 01:00:00 17.3 4 Sudeste 17 Este 0.3 1024.3 -0.9 80
2020-01-07 00:00:00 17.6 7 Sudeste 14 Este 0 1024.7 -0.4 79
2020-01-06 23:00:00 18.3 13 Este 30 Este 0 1025 1 80
2020-01-06 22:00:00 17.8 6 Sur 15 Sur 0 1025.2 1.6 85
2020-01-06 21:00:00 17.8 6 Sur 31 Nordeste 0.6 1025.1 1.6 89
2020-01-06 20:00:00 19 2 Sur 15 Nordeste 0 1024 0.8 73
2020-01-06 19:00:00 19.1 9 Nordeste 18 Norte 0 1023.6 0.7 74
2020-01-06 18:00:00 19.5 8 Norte 14 Nordeste 0 1023.5 0.4 66
2020-01-06 17:00:00 20.9 0 Calma 11 Sudeste 0 1023.2 0.2 59
2020-01-06 16:00:00 20.9 0 Calma 16 Norte 0 1022.9 -1.1 58
2020-01-06 15:00:00 20.5 10 Norte 18 Norte 0 1023.1 -2 58
2020-01-06 14:00:00 22.1 8 Este 15 Nordeste 0 1023 -2.9 49
2020-01-06 13:00:00 22.7 8 Nordeste 16 Nordeste 0 1024 -2.5 50
2020-01-06 12:00:00 21.3 13 Nordeste 22 Nordeste 0 1025.1 -1 58
2020-01-06 11:00:00 21.1 8 Este 17 Este 0 1025.9 0.8 56
2020-01-06 10:00:00 18.6 8 Este 18 Este 0 1026.5 0.4 75
2020-01-06 09:00:00 17.8 12 Este 39 Este 0 1026.1 0.9 81